createdAt,value
2023-02-22T00:01:02.967Z,13.95
2023-02-22T00:03:35.073Z,12.85
2023-02-22T00:06:05.085Z,11.65
2023-02-22T00:08:34.289Z,9.60
2023-02-22T00:11:09.462Z,9.73
2023-02-22T00:13:37.929Z,11.25
2023-02-22T00:16:05.751Z,12.70
2023-02-22T00:18:32.899Z,12.20
2023-02-22T00:21:00.794Z,11.45
2023-02-22T00:23:30.078Z,10.77
2023-02-22T00:25:58.978Z,13.15
2023-02-22T00:28:26.170Z,12.88
2023-02-22T00:30:54.980Z,13.55
2023-02-22T00:33:22.643Z,13.10
2023-02-22T00:35:49.948Z,19.02
2023-02-22T00:38:18.675Z,16.48
2023-02-22T00:40:46.005Z,16.60
2023-02-22T00:43:13.611Z,14.93
2023-02-22T00:45:41.301Z,16.95
2023-02-22T00:48:09.473Z,14.98
2023-02-22T00:50:37.055Z,13.75
2023-02-22T00:53:07.466Z,13.27
2023-02-22T00:55:36.395Z,12.77
2023-02-22T00:58:04.340Z,14.82
2023-02-22T01:00:38.660Z,15.82
2023-02-22T01:03:11.282Z,13.02
2023-02-22T01:05:38.614Z,13.82
2023-02-22T01:08:07.577Z,12.80
2023-02-22T01:10:36.043Z,14.50
2023-02-22T01:13:09.005Z,12.85
2023-02-22T01:15:39.096Z,12.88
2023-02-22T01:18:07.337Z,11.38
2023-02-22T01:20:34.755Z,12.90
2023-02-22T01:23:03.656Z,13.43
2023-02-22T01:25:31.525Z,12.50
2023-02-22T01:28:00.323Z,9.45
2023-02-22T01:30:33.282Z,14.10
2023-02-22T01:33:02.582Z,11.93
2023-02-22T01:35:33.010Z,10.48
2023-02-22T01:38:00.210Z,12.07
2023-02-22T01:40:42.015Z,11.77
2023-02-22T01:43:35.774Z,15.07
2023-02-22T01:46:24.339Z,15.48
2023-02-22T01:49:00.733Z,11.95
2023-02-22T01:51:37.752Z,12.88
2023-02-22T01:54:19.329Z,11.98
2023-02-22T01:57:01.507Z,10.45
2023-02-22T01:59:33.371Z,12.82
2023-02-22T02:02:00.777Z,11.65
2023-02-22T02:04:28.590Z,13.32
2023-02-22T02:07:00.349Z,13.98
2023-02-22T02:10:04.374Z,11.77
2023-02-22T02:12:35.792Z,11.85
2023-02-22T02:15:25.380Z,9.48
2023-02-22T02:17:54.415Z,11.27
2023-02-22T02:20:37.337Z,11.07
2023-02-22T02:23:16.702Z,11.55
2023-02-22T02:25:58.464Z,10.73
2023-02-22T02:28:37.321Z,10.32
2023-02-22T02:31:38.262Z,11.70
2023-02-22T02:34:21.957Z,15.73
2023-02-22T02:36:56.862Z,9.90
2023-02-22T02:39:33.649Z,13.70
2023-02-22T02:42:06.294Z,13.70
2023-02-22T02:44:40.184Z,11.55
2023-02-22T02:47:14.480Z,13.40
2023-02-22T02:49:50.087Z,14.48
2023-02-22T02:52:19.390Z,12.07
2023-02-22T02:54:47.263Z,11.23
2023-02-22T02:57:14.435Z,12.68
2023-02-22T02:59:41.446Z,10.73
2023-02-22T03:02:17.351Z,11.90
2023-02-22T03:05:22.205Z,12.80
2023-02-22T03:08:04.849Z,13.87
2023-02-22T03:10:53.789Z,12.70
2023-02-22T03:13:40.454Z,11.65
2023-02-22T03:16:15.389Z,11.32
2023-02-22T03:19:07.889Z,12.25
2023-02-22T03:21:57.280Z,15.75
2023-02-22T03:24:37.441Z,10.05
2023-02-22T03:27:09.524Z,10.80
2023-02-22T03:29:42.880Z,10.35
2023-02-22T03:32:15.860Z,10.60
2023-02-22T03:34:47.976Z,9.80
2023-02-22T03:37:18.988Z,10.93
2023-02-22T03:39:48.014Z,11.90
2023-02-22T03:42:24.147Z,11.98
2023-02-22T03:44:54.759Z,10.27
2023-02-22T03:47:28.406Z,13.15
2023-02-22T03:50:01.968Z,10.00
2023-02-22T03:52:29.513Z,12.57
2023-02-22T03:54:56.658Z,10.98
2023-02-22T03:57:32.074Z,11.20
2023-02-22T03:59:59.363Z,9.98
2023-02-22T04:02:26.841Z,11.48
2023-02-22T04:04:54.168Z,12.45
2023-02-22T04:07:21.592Z,12.43
2023-02-22T04:09:49.275Z,11.20
2023-02-22T04:12:16.369Z,11.40
2023-02-22T04:14:43.601Z,10.38
2023-02-22T04:17:10.880Z,10.30
2023-02-22T04:19:38.076Z,9.65
2023-02-22T04:22:05.286Z,10.20
2023-02-22T04:24:32.272Z,11.48
2023-02-22T04:26:59.194Z,11.40
2023-02-22T04:29:26.280Z,13.05
2023-02-22T04:31:53.410Z,10.18
2023-02-22T04:34:20.455Z,12.48
2023-02-22T04:36:47.583Z,10.23
2023-02-22T04:39:15.083Z,10.38
2023-02-22T04:41:42.386Z,12.40
2023-02-22T04:44:09.644Z,11.27
2023-02-22T04:46:36.705Z,12.40
2023-02-22T04:49:04.090Z,10.48
2023-02-22T04:51:31.444Z,11.00
2023-02-22T04:53:58.597Z,14.70
2023-02-22T04:56:25.850Z,8.75
2023-02-22T04:58:53.065Z,10.05
2023-02-22T05:01:20.171Z,11.48
2023-02-22T05:03:47.323Z,13.07
2023-02-22T05:06:14.503Z,10.90
2023-02-22T05:08:41.591Z,12.68
2023-02-22T05:11:08.642Z,12.60
2023-02-22T05:13:36.062Z,12.10
2023-02-22T05:16:03.898Z,13.80
2023-02-22T05:18:30.874Z,9.77
2023-02-22T05:20:57.867Z,10.38
2023-02-22T05:23:25.091Z,14.50
2023-02-22T05:25:52.043Z,10.85
2023-02-22T05:28:19.176Z,12.10
2023-02-22T05:30:46.461Z,10.90
2023-02-22T05:33:13.423Z,14.52
2023-02-22T05:35:40.468Z,15.75
2023-02-22T05:38:08.028Z,12.75
2023-02-22T05:40:35.147Z,11.68
2023-02-22T05:43:02.792Z,10.77
2023-02-22T05:45:30.305Z,10.18
2023-02-22T05:47:57.887Z,10.30
2023-02-22T05:50:25.220Z,14.52
2023-02-22T05:52:53.151Z,12.25
2023-02-22T05:55:22.100Z,14.35
2023-02-22T05:57:49.481Z,12.25
2023-02-22T06:00:27.459Z,16.50
2023-02-22T06:03:14.861Z,11.77
2023-02-22T06:05:42.445Z,11.80
2023-02-22T06:08:09.560Z,9.35
2023-02-22T06:10:36.899Z,11.88
2023-02-22T06:13:05.427Z,13.25
2023-02-22T06:15:32.732Z,11.60
2023-02-22T06:18:00.536Z,11.05
2023-02-22T06:20:30.153Z,11.07
2023-02-22T06:22:58.906Z,10.63
2023-02-22T06:25:31.213Z,10.82
2023-02-22T06:27:59.464Z,8.95
2023-02-22T06:30:27.847Z,12.32
2023-02-22T06:32:55.117Z,10.32
2023-02-22T06:35:22.902Z,11.10
2023-02-22T06:37:50.041Z,11.32
2023-02-22T06:40:17.584Z,10.95
2023-02-22T06:42:48.954Z,11.55
2023-02-22T06:45:18.215Z,10.98
2023-02-22T06:47:45.680Z,13.25
2023-02-22T06:50:30.612Z,10.15
2023-02-22T06:55:30.993Z,9.43
2023-02-22T06:57:59.418Z,12.55
2023-02-22T07:00:28.846Z,13.02
2023-02-22T07:02:57.116Z,9.32
2023-02-22T07:05:26.022Z,12.30
2023-02-22T07:07:55.242Z,11.98
2023-02-22T07:10:26.158Z,11.15
2023-02-22T07:12:54.165Z,11.88
2023-02-22T07:15:23.664Z,15.35
2023-02-22T07:17:51.598Z,11.68
2023-02-22T07:20:20.736Z,11.57
2023-02-22T07:22:49.248Z,9.85
2023-02-22T07:25:16.747Z,9.93
2023-02-22T07:27:44.114Z,11.35
2023-02-22T07:30:26.007Z,13.43
2023-02-22T07:32:54.881Z,10.57
2023-02-22T07:35:30.985Z,9.32
2023-02-22T07:37:58.833Z,10.68
2023-02-22T07:40:27.397Z,10.88
2023-02-22T07:42:55.609Z,11.20
2023-02-22T07:45:25.192Z,12.60
2023-02-22T07:47:52.449Z,12.45
2023-02-22T07:50:22.243Z,12.32
2023-02-22T07:52:52.761Z,12.43
2023-02-22T07:55:25.873Z,13.18
2023-02-22T07:57:55.402Z,10.70
2023-02-22T08:00:32.710Z,12.95
2023-02-22T08:03:02.256Z,14.75
2023-02-22T08:05:32.084Z,13.38
2023-02-22T08:07:59.258Z,10.35
2023-02-22T08:10:27.376Z,12.15
2023-02-22T08:12:55.993Z,9.93
2023-02-22T08:15:32.117Z,10.30
2023-02-22T08:18:01.061Z,10.40
2023-02-22T08:20:29.662Z,11.15
2023-02-22T08:22:57.851Z,13.07
2023-02-22T08:25:27.763Z,10.27
2023-02-22T08:28:02.575Z,9.93
2023-02-22T08:32:59.204Z,11.90
2023-02-22T08:35:27.528Z,9.55
2023-02-22T08:37:58.908Z,11.57
2023-02-22T08:40:28.275Z,10.60
2023-02-22T08:42:55.781Z,11.45
2023-02-22T08:45:23.345Z,14.32
2023-02-22T08:47:50.883Z,8.90
2023-02-22T08:50:30.613Z,10.30
2023-02-22T08:52:59.476Z,10.07
2023-02-22T08:55:30.130Z,14.30
2023-02-22T08:57:57.184Z,9.43
2023-02-22T09:00:29.471Z,8.50
2023-02-22T09:02:56.544Z,7.70
2023-02-22T09:05:23.837Z,9.60
2023-02-22T09:07:50.824Z,7.97
2023-02-22T09:10:26.722Z,11.15
2023-02-22T09:12:57.112Z,9.73
2023-02-22T09:15:25.568Z,8.57
2023-02-22T09:17:53.765Z,12.35
2023-02-22T09:20:23.033Z,8.73
2023-02-22T09:22:50.426Z,7.18
2023-02-22T09:25:20.637Z,9.75
2023-02-22T09:27:51.367Z,8.25
2023-02-22T09:30:34.034Z,9.85
2023-02-22T09:33:09.910Z,8.45
2023-02-22T09:35:42.459Z,9.93
2023-02-22T09:38:11.453Z,7.75
2023-02-22T09:40:45.255Z,9.18
2023-02-22T09:43:31.414Z,7.25
2023-02-22T09:46:21.405Z,10.80
2023-02-22T09:49:00.458Z,9.25
2023-02-22T09:51:35.784Z,10.40
2023-02-22T09:54:06.128Z,9.55
2023-02-22T09:56:33.988Z,10.68
2023-02-22T09:59:04.154Z,13.50
2023-02-22T10:01:48.413Z,8.88
2023-02-22T10:04:36.742Z,11.05
2023-02-22T10:07:26.150Z,9.82
2023-02-22T10:09:56.605Z,7.82
2023-02-22T10:12:28.461Z,7.68
2023-02-22T10:15:23.596Z,8.68
2023-02-22T10:18:42.499Z,8.68
2023-02-22T10:21:36.725Z,9.75
2023-02-22T10:24:27.436Z,10.57
2023-02-22T10:26:56.328Z,8.23
2023-02-22T10:29:37.730Z,9.38
2023-02-22T10:32:05.721Z,7.65
2023-02-22T10:34:48.578Z,8.32
2023-02-22T10:37:25.586Z,9.00
2023-02-22T10:40:05.432Z,8.05
2023-02-22T10:42:32.779Z,7.55
2023-02-22T10:45:00.347Z,8.90
2023-02-22T10:47:28.006Z,8.43
2023-02-22T10:50:00.899Z,8.55
2023-02-22T10:52:36.074Z,6.20
2023-02-22T10:55:15.220Z,7.82
2023-02-22T10:57:46.459Z,5.93
2023-02-22T11:00:26.452Z,6.35
2023-02-22T11:03:01.098Z,5.32
2023-02-22T11:08:16.808Z,6.80
2023-02-22T11:10:44.222Z,6.15
2023-02-22T11:13:18.883Z,7.18
2023-02-22T11:18:39.072Z,8.45
2023-02-22T11:21:11.540Z,8.50
2023-02-22T11:23:44.298Z,10.93
2023-02-22T11:26:20.415Z,5.72
2023-02-22T11:28:51.131Z,8.48
2023-02-22T11:31:30.122Z,8.10
2023-02-22T11:34:00.567Z,6.95
2023-02-22T11:36:40.875Z,8.20
2023-02-22T11:39:29.109Z,9.18
2023-02-22T11:41:57.041Z,9.00
2023-02-22T11:44:28.442Z,8.63
2023-02-22T11:47:01.176Z,8.88
2023-02-22T11:49:38.195Z,6.43
2023-02-22T11:52:10.687Z,7.85
2023-02-22T11:55:09.927Z,8.02
2023-02-22T11:57:46.845Z,6.40
2023-02-22T12:00:41.356Z,8.25
2023-02-22T12:03:54.814Z,6.93
2023-02-22T12:06:48.585Z,7.88
2023-02-22T12:10:11.812Z,10.38
2023-02-22T12:13:03.886Z,7.82
2023-02-22T12:15:48.498Z,9.30
2023-02-22T12:18:58.878Z,9.27
2023-02-22T12:21:29.861Z,7.90
2023-02-22T12:24:02.207Z,8.48
2023-02-22T12:26:29.074Z,12.13
2023-02-22T12:28:59.850Z,8.90
2023-02-22T12:31:47.401Z,10.82
2023-02-22T12:34:43.690Z,9.68
2023-02-22T12:37:34.769Z,10.75
2023-02-22T12:40:16.712Z,9.90
2023-02-22T12:42:56.916Z,13.15
2023-02-22T12:45:45.499Z,8.27
2023-02-22T12:48:46.123Z,11.38
2023-02-22T12:51:41.271Z,13.25
2023-02-22T12:54:32.262Z,9.20
2023-02-22T12:57:14.108Z,10.68
2023-02-22T12:59:52.365Z,8.30
2023-02-22T13:02:22.806Z,6.78
2023-02-22T13:04:50.161Z,7.28
2023-02-22T13:07:20.146Z,10.43
2023-02-22T13:09:59.501Z,7.95
2023-02-22T13:12:38.844Z,8.07
2023-02-22T13:15:24.851Z,9.75
2023-02-22T13:18:03.854Z,8.27
2023-02-22T13:20:39.298Z,8.15
2023-02-22T13:23:15.234Z,7.72
2023-02-22T13:25:48.583Z,8.65
2023-02-22T13:28:21.848Z,7.65
2023-02-22T13:31:11.020Z,7.70
2023-02-22T13:33:47.176Z,6.90
2023-02-22T13:36:33.781Z,7.70
2023-02-22T13:39:29.602Z,8.25
2023-02-22T13:42:32.103Z,9.55
2023-02-22T13:45:12.978Z,7.65
2023-02-22T13:48:04.370Z,8.23
2023-02-22T13:50:56.370Z,9.23
2023-02-22T13:53:28.794Z,8.75
2023-02-22T13:55:59.452Z,8.00
2023-02-22T13:58:27.139Z,8.02
2023-02-22T14:00:59.393Z,11.90
2023-02-22T14:03:36.429Z,9.95
2023-02-22T14:06:05.709Z,7.72
2023-02-22T14:08:33.775Z,7.78
2023-02-22T14:11:14.422Z,12.13
2023-02-22T14:13:55.182Z,9.18
2023-02-22T14:16:27.642Z,10.07
2023-02-22T14:19:16.643Z,9.48
2023-02-22T14:22:03.540Z,9.60
2023-02-22T14:24:45.237Z,9.60
2023-02-22T14:27:14.740Z,12.23
2023-02-22T14:30:00.478Z,9.45
2023-02-22T14:32:33.002Z,14.20
2023-02-22T14:35:06.314Z,9.57
2023-02-22T14:37:42.665Z,11.13
2023-02-22T14:40:25.886Z,12.73
2023-02-22T14:43:12.888Z,8.43
2023-02-22T14:45:47.585Z,12.15
2023-02-22T14:48:45.379Z,10.88
2023-02-22T14:51:22.397Z,9.43
2023-02-22T14:53:54.843Z,12.65
2023-02-22T14:56:26.918Z,12.55
2023-02-22T14:59:07.997Z,10.77
2023-02-22T15:01:52.739Z,13.75
2023-02-22T15:04:28.665Z,13.98
2023-02-22T15:06:57.833Z,11.77
2023-02-22T15:09:29.784Z,13.00
2023-02-22T15:12:04.174Z,12.88
2023-02-22T15:14:39.193Z,11.70
2023-02-22T15:17:16.148Z,10.77
2023-02-22T15:19:43.398Z,12.95
2023-02-22T15:22:35.675Z,12.77
2023-02-22T15:25:06.595Z,12.23
2023-02-22T15:27:37.220Z,13.07
2023-02-22T15:30:16.718Z,14.13
2023-02-22T15:33:01.309Z,15.32
2023-02-22T15:35:34.141Z,11.18
2023-02-22T15:38:20.130Z,23.80
2023-02-22T15:40:50.839Z,15.80
2023-02-22T15:43:24.346Z,14.95
2023-02-22T15:45:52.704Z,13.05
2023-02-22T15:48:20.124Z,14.55
2023-02-22T15:51:06.679Z,18.50
2023-02-22T15:53:47.292Z,16.52
2023-02-22T15:56:20.012Z,15.63
2023-02-22T15:58:47.998Z,15.90
2023-02-22T16:01:19.401Z,15.25
2023-02-22T16:03:50.442Z,13.10
2023-02-22T16:06:41.636Z,14.82
2023-02-22T16:09:15.141Z,17.08
2023-02-22T16:11:44.914Z,14.18
2023-02-22T16:14:31.495Z,15.50
2023-02-22T16:17:13.213Z,14.93
2023-02-22T16:19:44.803Z,14.65
2023-02-22T16:22:26.836Z,15.98
2023-02-22T16:24:55.140Z,18.48
2023-02-22T16:27:24.562Z,14.90
2023-02-22T16:30:29.027Z,15.85
2023-02-22T16:32:57.261Z,19.20
2023-02-22T16:35:29.127Z,14.65
2023-02-22T16:38:08.061Z,14.35
2023-02-22T16:40:41.588Z,15.57
2023-02-22T16:43:20.684Z,15.68
2023-02-22T16:45:48.177Z,16.95
2023-02-22T16:48:19.892Z,15.88
2023-02-22T16:50:50.240Z,14.65
2023-02-22T16:53:21.251Z,16.10
2023-02-22T16:55:49.758Z,12.10
2023-02-22T16:58:19.138Z,15.43
2023-02-22T17:00:46.146Z,13.35
2023-02-22T17:03:20.705Z,17.13
2023-02-22T17:08:16.440Z,17.55
2023-02-22T17:10:43.892Z,16.20
2023-02-22T17:13:22.456Z,13.45
2023-02-22T17:15:52.022Z,14.48
2023-02-22T17:18:22.775Z,13.77
2023-02-22T17:20:51.387Z,13.82
2023-02-22T17:23:19.216Z,13.77
2023-02-22T17:25:53.968Z,12.93
2023-02-22T17:28:22.056Z,15.50
2023-02-22T17:30:49.500Z,13.02
2023-02-22T17:33:19.664Z,13.70
2023-02-22T17:35:47.427Z,16.92
2023-02-22T17:38:18.788Z,19.05
2023-02-22T17:40:56.389Z,16.23
2023-02-22T17:43:25.131Z,14.93
2023-02-22T17:45:53.861Z,14.50
2023-02-22T17:48:23.792Z,15.55
2023-02-22T17:50:51.069Z,17.05
2023-02-22T17:53:21.809Z,30.70
2023-02-22T17:55:49.617Z,17.83
2023-02-22T17:58:17.206Z,16.13
2023-02-22T18:00:46.703Z,16.35
2023-02-22T18:03:17.490Z,15.68
2023-02-22T18:05:48.644Z,16.45
2023-02-22T18:08:16.382Z,18.88
2023-02-22T18:10:44.736Z,20.25
2023-02-22T18:13:19.669Z,22.20
2023-02-22T18:15:47.446Z,20.45
2023-02-22T18:18:16.183Z,18.75
2023-02-22T18:20:44.905Z,19.40
2023-02-22T18:23:16.934Z,19.88
2023-02-22T18:26:03.711Z,17.48
2023-02-22T18:28:36.412Z,19.10
2023-02-22T18:31:08.697Z,20.88
2023-02-22T18:33:35.866Z,18.63
2023-02-22T18:36:03.047Z,18.55
2023-02-22T18:38:30.153Z,19.35
2023-02-22T18:41:05.838Z,24.17
2023-02-22T18:43:36.329Z,23.30
2023-02-22T18:46:30.350Z,19.85
2023-02-22T18:48:57.725Z,19.05
2023-02-22T18:51:26.517Z,19.25
2023-02-22T18:54:00.366Z,22.55
2023-02-22T18:59:03.134Z,21.77
2023-02-22T19:01:31.761Z,22.08
2023-02-22T19:04:00.717Z,22.52
2023-02-22T19:06:27.939Z,28.80
2023-02-22T19:08:54.932Z,22.90
2023-02-22T19:11:24.175Z,20.95
2023-02-22T19:13:54.771Z,23.85
2023-02-22T19:16:24.580Z,24.70
2023-02-22T19:18:57.234Z,22.52
2023-02-22T19:21:26.175Z,24.13
2023-02-22T19:23:53.449Z,24.50
2023-02-22T19:26:25.820Z,25.58
2023-02-22T19:28:54.987Z,23.67
2023-02-22T19:31:31.228Z,24.17
2023-02-22T19:34:04.564Z,25.13
2023-02-22T19:36:32.682Z,24.20
2023-02-22T19:39:03.252Z,28.75
2023-02-22T19:41:30.790Z,29.00
2023-02-22T19:43:58.689Z,26.58
2023-02-22T19:46:25.895Z,27.52
2023-02-22T19:48:55.310Z,26.90
2023-02-22T19:51:25.578Z,24.15
2023-02-22T19:53:53.506Z,24.30
2023-02-22T19:56:27.165Z,28.85
2023-02-22T19:58:56.528Z,25.45
2023-02-22T20:01:26.448Z,26.35
2023-02-22T20:03:57.668Z,25.52
2023-02-22T20:06:28.231Z,23.30
2023-02-22T20:08:57.005Z,27.73
2023-02-22T20:11:25.027Z,26.80
2023-02-22T20:13:52.138Z,28.63
2023-02-22T20:16:19.275Z,25.00
2023-02-22T20:18:48.558Z,27.88
2023-02-22T20:21:32.929Z,25.90
2023-02-22T20:24:04.564Z,27.05
2023-02-22T20:26:34.190Z,29.38
2023-02-22T20:29:04.027Z,24.83
2023-02-22T20:31:32.634Z,25.20
2023-02-22T20:34:01.018Z,25.58
2023-02-22T20:36:30.033Z,25.90
2023-02-22T20:38:59.674Z,26.88
2023-02-22T20:44:45.261Z,30.88
2023-02-22T20:47:12.513Z,30.70
2023-02-22T20:49:39.791Z,30.23
2023-02-22T20:52:06.933Z,27.65
2023-02-22T20:54:35.276Z,27.48
2023-02-22T20:57:02.344Z,28.15
2023-02-22T20:59:29.374Z,29.73
2023-02-22T21:01:56.440Z,27.23
2023-02-22T21:04:23.530Z,31.63
2023-02-22T21:06:50.684Z,27.23
2023-02-22T21:09:20.355Z,30.63
2023-02-22T21:11:47.472Z,28.45
2023-02-22T21:14:18.693Z,30.13
2023-02-22T21:16:48.483Z,31.77
2023-02-22T21:19:27.808Z,28.58
2023-02-22T21:21:57.925Z,31.17
2023-02-22T21:24:26.688Z,33.17
2023-02-22T21:26:53.875Z,29.65
2023-02-22T21:29:20.954Z,31.02
2023-02-22T21:31:48.180Z,29.35
2023-02-22T21:34:17.519Z,28.25
2023-02-22T21:36:45.610Z,30.13
2023-02-22T21:39:19.158Z,29.83
2023-02-22T21:41:51.105Z,31.75
2023-02-22T21:44:19.104Z,28.80
2023-02-22T21:46:48.824Z,34.95
2023-02-22T21:49:16.825Z,30.55
2023-02-22T21:51:45.001Z,33.08
2023-02-22T21:54:12.851Z,29.60
2023-02-22T21:56:42.218Z,29.02
2023-02-22T21:59:19.045Z,34.78
2023-02-22T22:01:50.097Z,27.33
2023-02-22T22:04:20.073Z,32.42
2023-02-22T22:06:48.981Z,34.10
2023-02-22T22:09:19.193Z,25.95
2023-02-22T22:11:51.814Z,33.75
2023-02-22T22:14:20.615Z,29.65
2023-02-22T22:16:58.597Z,34.50
2023-02-22T22:19:30.363Z,34.42
2023-02-22T22:21:58.220Z,29.17
2023-02-22T22:24:28.871Z,32.40
2023-02-22T22:26:56.337Z,27.38
2023-02-22T22:29:24.934Z,24.45
2023-02-22T22:31:52.531Z,24.75
2023-02-22T22:34:19.614Z,26.80
2023-02-22T22:36:46.673Z,26.75
2023-02-22T22:39:14.201Z,25.45
2023-02-22T22:41:42.278Z,27.73
2023-02-22T22:44:10.937Z,27.70
2023-02-22T22:46:39.710Z,27.25
2023-02-22T22:49:12.378Z,29.05
2023-02-22T22:51:43.198Z,26.85
2023-02-22T22:54:10.801Z,26.23
2023-02-22T22:56:38.795Z,26.00
2023-02-22T22:59:08.299Z,27.10
2023-02-22T23:01:44.870Z,25.02
2023-02-22T23:04:18.314Z,26.15
2023-02-22T23:06:50.755Z,25.23
2023-02-22T23:09:21.656Z,24.42
2023-02-22T23:11:56.410Z,26.73
2023-02-22T23:14:26.611Z,23.63
2023-02-22T23:17:00.099Z,27.45
2023-02-22T23:19:27.220Z,21.77
2023-02-22T23:21:56.037Z,24.80
2023-02-22T23:24:27.171Z,23.83
2023-02-22T23:26:59.565Z,24.52
2023-02-22T23:29:27.297Z,24.10
2023-02-22T23:31:55.162Z,26.92
2023-02-22T23:34:23.277Z,25.00
2023-02-22T23:36:54.251Z,25.45
2023-02-22T23:39:22.884Z,28.40
2023-02-22T23:42:01.336Z,23.77
2023-02-22T23:44:29.547Z,27.92
2023-02-22T23:46:56.637Z,28.17
2023-02-22T23:49:26.659Z,27.13
2023-02-22T23:51:53.995Z,27.58
2023-02-22T23:54:21.613Z,26.33
2023-02-22T23:56:58.118Z,27.50
2023-02-22T23:59:26.577Z,24.70
